Livermore, Kentucky
Current Conditions -  °F | °C
As of 1:56 PM on Sunday 21 Dec 2014 (Local Time) from KOWB Reporting Station
Clear Clear  
Wind Chill: 42°   Ceiling: Unl
Heat Index: 45°   Visibility: 10mi
Dew Point: 30°   Wind: 6mph
Humidity: 56%   Direction: NA
Pressure: 30.14"   Gusts: NA
Location:  37.49°N, 87.13°W
Report Text: KOWB 211956Z VRB05KT 10SM CLR 07/M01 A3014 RMK AO2 T00721011 SLP210
Loading
Personal Weather Stations






























Interactive Weather Map New forecast layout! Learn more

10-Day Weather Forecast

Advertisements
Track Severe Weather on mobile